Flight Track Log - Related Links

Times and Time Zones

All times are in EDT time to prevent confusion due to time zone crossing. See the CES5569 flight status page for this flight to view local times or setup timezone preferences in your user account.

Time Position Orientation Groundspeed Altitude Reporting Facility
EDT Latitude Longitude Course Direction KTS MPH feet Rate Location/Type
Sat 03:46:31 AM 31.2143 121.3292 330° Northwest 136 157 1,800  Level FlightAware ADS-B (ZSSS / SHA)
Sat 03:46:35 AM 31.2162 121.3274 320° Northwest 134 154 2,100 3,333 Climbing FlightAware ADS-B (ZSSS / SHA)
Sat 03:46:40 AM 31.2179 121.3254 314° West 133 153 2,300 2,400 Climbing FlightAware ADS-B (ZSSS / SHA)
Sat 03:46:55 AM 31.2240 121.3169 308° West 131 151 2,900 2,000 Climbing FlightAware ADS-B (ZSSS / SHA)
Sat 03:47:10 AM 31.2296 121.3081 306° West 144 166 3,300 1,800 Climbing FlightAware ADS-B (ZSSS / SHA)
Sat 03:47:25 AM 31.2357 121.2981 306° West 159 183 3,800 1,600 Climbing FlightAware ADS-B (ZSSS / SHA)
Sat 03:47:40 AM 31.2425 121.2869 306° West 181 208 4,100 1,241 Climbing FlightAware ADS-B (ZSSS / SHA)
Sat 03:47:54 AM 31.2497 121.2749 306° West 199 229 4,400 1,655 Climbing FlightAware ADS-B (ZSSS / SHA)
Sat 03:48:09 AM 31.2581 121.2610 305° West 223 257 4,900 1,355 Climbing FlightAware ADS-B (ZSSS / SHA)
Sat 03:48:25 AM 31.2677 121.2430 297° West 254 292 5,100 571 Climbing FlightAware ADS-B (ZSSS / SHA)
Sat 03:48:30 AM 31.2698 121.2362 289° West 259 298 5,100  Level FlightAware ADS-B (ZSSS / SHA)
Sat 03:48:35 AM 31.2709 121.2310 283° West 264 304 5,100  Level FlightAware ADS-B (ZSSS / SHA)
Sat 03:48:40 AM 31.2715 121.2238 274° West 269 310 5,100  Level FlightAware ADS-B (ZSSS / SHA)
Sat 03:48:45 AM 31.2710 121.2156 265° West 275 316 5,100  Level FlightAware ADS-B (ZSSS / SHA)
Sat 03:48:50 AM 31.2698 121.2094 256° West 280 322 5,100  Level FlightAware ADS-B (ZSSS / SHA)
Sat 03:48:54 AM 31.2675 121.2022 249° West 284 327 5,100  Level FlightAware ADS-B (ZSSS / SHA)
Sat 03:48:58 AM 31.2662 121.1991 244° Southwest 288 331 5,100  Level FlightAware ADS-B (ZSSS / SHA)
Sat 03:49:20 AM 31.2472 121.1684 234° Southwest 290 334 5,100 130 Level FlightAware ADS-B (ZSSS / SHA)
Sat 03:49:44 AM 31.2265 121.1397 220° Southwest 294 338 5,200 400 Climbing FlightAware ADS-B (ZSSS / SHA)
Sat 03:49:50 AM 31.2201 121.1348 213° Southwest 297 342 5,300 1,000 Climbing FlightAware ADS-B (ZSSS / SHA)
Sat 03:52:00 AM 31.0908 121.0725 202° Southwest  Level Estimated
Sat 03:53:00 AM 31.0312 121.0438 202° Southwest  Level Estimated
Sat 03:54:00 AM 30.9715 121.0151 202° Southwest  Level Estimated
Sat 03:55:00 AM 30.9118 120.9865 202° Southwest  Level Estimated
Sat 03:56:00 AM 30.8214 120.9433 202° Southwest  Level Estimated
Sat 03:57:00 AM 30.7311 120.9001 202° Southwest  Level Estimated
Sat 03:58:00 AM 30.6407 120.8570 202° Southwest  Level Estimated
Sat 03:59:00 AM 30.5503 120.8139 202° Southwest  Level Estimated
Sat 04:00:00 AM 30.4599 120.7710 202° Southwest  Level Estimated
Sat 04:01:00 AM 30.3694 120.7282 202° Southwest  Level Estimated
Sat 04:02:00 AM 30.2790 120.6854 202° Southwest  Level Estimated
Sat 04:03:00 AM 30.1886 120.6427 202° Southwest  Level Estimated
Sat 04:04:00 AM 30.0981 120.6001 202° Southwest  Level Estimated
Sat 04:05:00 AM 30.0076 120.5575 202° Southwest  Level Estimated
Sat 04:06:00 AM 29.9171 120.5150 202° Southwest  Level Estimated
Sat 04:07:00 AM 29.8266 120.4726 202° Southwest  Level Estimated
Sat 04:08:00 AM 29.7361 120.4303 202° Southwest  Level Estimated
Sat 04:09:00 AM 29.6456 120.3881 202° Southwest  Level Estimated
Sat 04:10:00 AM 29.5550 120.3459 202° Southwest  Level Estimated
Sat 04:11:00 AM 29.4645 120.3039 202° Southwest  Level Estimated
Sat 04:12:00 AM 29.3739 120.2618 202° Southwest  Level Estimated
Sat 04:13:00 AM 29.2833 120.2199 202° Southwest  Level Estimated
Sat 04:14:00 AM 29.1927 120.1780 202° Southwest  Level Estimated
Sat 04:15:00 AM 29.1021 120.1363 202° Southwest  Level Estimated
Sat 04:16:00 AM 29.0114 120.0946 202° Southwest  Level Estimated
Sat 04:17:00 AM 28.9208 120.0529 202° Southwest  Level Estimated
Sat 04:18:00 AM 28.8302 120.0113 202° Southwest  Level Estimated
Sat 04:19:00 AM 28.7395 119.9698 202° Southwest  Level Estimated
Sat 04:20:00 AM 28.6488 119.9284 202° Southwest  Level Estimated
Sat 04:21:00 AM 28.5581 119.8871 202° Southwest  Level Estimated
Sat 04:22:00 AM 28.4674 119.8458 202° Southwest  Level Estimated
Sat 04:23:00 AM 28.3767 119.8046 202° Southwest  Level Estimated
Sat 04:24:00 AM 28.2860 119.7634 202° Southwest  Level Estimated
Sat 04:25:00 AM 28.1952 119.7224 202° Southwest  Level Estimated
Sat 04:26:00 AM 28.1045 119.6814 202° Southwest  Level Estimated
Sat 04:27:00 AM 28.0137 119.6404 202° Southwest  Level Estimated
Sat 04:28:00 AM 27.9229 119.5996 202° Southwest  Level Estimated
Sat 04:29:00 AM 27.8322 119.5588 202° Southwest  Level Estimated
Sat 04:30:00 AM 27.7414 119.5181 202° Southwest  Level Estimated
Sat 04:31:00 AM 27.6505 119.4774 202° Southwest  Level Estimated
Sat 04:32:00 AM 27.5597 119.4368 202° Southwest  Level Estimated
Sat 04:33:00 AM 27.4689 119.3963 202° Southwest  Level Estimated
Sat 04:34:00 AM 27.3780 119.3558 202° Southwest  Level Estimated
Sat 04:35:00 AM 27.2872 119.3154 202° Southwest  Level Estimated
Sat 04:36:00 AM 27.1963 119.2751 202° Southwest  Level Estimated
Sat 04:37:00 AM 27.1054 119.2349 202° Southwest  Level Estimated
Sat 04:38:00 AM 27.0145 119.1947 202° Southwest  Level Estimated
Sat 04:39:00 AM 26.9236 119.1545 201° Southwest  Level Estimated
Sat 04:40:00 AM 26.8327 119.1145 201° Southwest  Level Estimated
Sat 04:41:00 AM 26.7418 119.0745 201° Southwest  Level Estimated
Sat 04:42:00 AM 26.6508 119.0346 201° Southwest  Level Estimated
Sat 04:43:00 AM 26.5599 118.9947 201° Southwest  Level Estimated
Sat 04:44:00 AM 26.4689 118.9549 201° Southwest  Level Estimated
Sat 04:45:00 AM 26.3780 118.9151 201° Southwest  Level Estimated
Sat 04:46:00 AM 26.2870 118.8754 201° Southwest  Level Estimated
Sat 04:47:00 AM 26.1960 118.8358 201° Southwest  Level Estimated
Sat 04:48:00 AM 26.1158 118.8010 201° Southwest  Level Estimated
Sat 04:49:00 AM 26.0356 118.7662 201° Southwest  Level Estimated
Sat 04:50:00 AM 25.9555 118.7314 201° Southwest  Level Estimated
Sat 04:51:00 AM 25.8752 118.6967 201° Southwest  Level Estimated
Sat 04:52:00 AM 25.7950 118.6620 201° Southwest  Level Estimated
Sat 04:53:00 AM 25.7148 118.6274 201° Southwest  Level Estimated
Sat 04:54:00 AM 25.6346 118.5928 201° Southwest  Level Estimated
Sat 04:55:00 AM 25.5410 118.5526 201° Southwest  Level Estimated
Sat 04:56:00 AM 25.4474 118.5124 201° Southwest  Level Estimated
Sat 04:57:00 AM 25.3538 118.4722 201° Southwest  Level Estimated
Sat 04:58:00 AM 25.2602 118.4321 201° Southwest  Level Estimated
Sat 04:59:00 AM 25.1665 118.3921 201° Southwest  Level Estimated
Sat 05:00:00 AM 25.0728 118.3522 201° Southwest  Level Estimated
Sat 05:01:00 AM 24.9792 118.3123 201° Southwest  Level Estimated
Sat 05:02:00 AM 24.8855 118.2724 201° Southwest  Level Estimated
Sat 05:03:00 AM 24.7918 118.2326 201° Southwest  Level Estimated
Sat 05:04:00 AM 24.6981 118.1929 201° Southwest  Level Estimated
Sat 05:05:00 AM 24.6044 118.1533 201° Southwest  Level Estimated
Sat 05:06:00 AM 24.5440 118.1277 201° Southwest  Level Estimated
Sat 05:07:00 AM 24.5440 118.1277 North  Level Estimated
Sat 05:08:00 AM 24.5440 118.1277 North  Level Estimated
Sat 05:09:00 AM 24.5440 118.1277 North  Level Estimated
Sat 05:10:00 AM 24.5440 118.1277 North  Level Estimated
Sat 05:11:00 AM 24.5440 118.1277 North  Level Estimated
Sat 05:12:00 AM 24.5440 118.1277 North  Level Estimated
Sat 05:13:00 AM 24.5440 118.1277 North  Level Estimated

Login

Don't have an account? Register now (free) for customized features, flight alerts, and more!